createdAt,value
2022-08-18T00:01:48.760Z,5.55
2022-08-18T00:04:35.151Z,6.90
2022-08-18T00:07:04.204Z,5.40
2022-08-18T00:09:32.684Z,5.30
2022-08-18T00:12:03.189Z,6.00
2022-08-18T00:14:30.877Z,6.93
2022-08-18T00:16:57.884Z,7.53
2022-08-18T00:19:47.580Z,9.98
2022-08-18T00:22:15.889Z,7.63
2022-08-18T00:24:48.265Z,6.95
2022-08-18T00:27:22.871Z,6.78
2022-08-18T00:29:51.259Z,7.80
2022-08-18T00:32:21.769Z,5.60
2022-08-18T00:34:48.605Z,5.43
2022-08-18T00:37:15.437Z,6.15
2022-08-18T00:39:47.396Z,6.68
2022-08-18T00:42:28.943Z,6.90
2022-08-18T00:45:00.488Z,7.32
2022-08-18T00:47:41.158Z,4.70
2022-08-18T00:50:15.206Z,8.30
2022-08-18T00:52:49.920Z,6.07
2022-08-18T00:55:18.417Z,8.35
2022-08-18T00:57:47.552Z,5.47
2022-08-18T01:00:15.264Z,5.75
2022-08-18T01:02:49.382Z,5.75
2022-08-18T01:05:46.123Z,4.85
2022-08-18T01:08:16.506Z,5.35
2022-08-18T01:10:47.645Z,7.60
2022-08-18T01:13:14.708Z,6.53
2022-08-18T01:15:41.690Z,8.05
2022-08-18T01:18:30.798Z,5.75
2022-08-18T01:21:34.277Z,7.18
2022-08-18T01:24:04.385Z,12.48
2022-08-18T01:26:35.478Z,7.32
2022-08-18T01:29:11.709Z,6.45
2022-08-18T01:31:55.453Z,6.85
2022-08-18T01:34:25.800Z,6.40
2022-08-18T01:36:54.950Z,7.38
2022-08-18T01:41:25.163Z,6.68
2022-08-18T01:42:09.986Z,7.53
2022-08-18T01:44:37.143Z,6.78
2022-08-18T01:47:04.264Z,6.30
2022-08-18T01:49:31.129Z,8.63
2022-08-18T01:51:58.009Z,5.20
2022-08-18T01:54:30.162Z,6.53
2022-08-18T01:56:57.848Z,7.32
2022-08-18T01:59:24.858Z,8.48
2022-08-18T02:01:55.678Z,6.60
2022-08-18T02:04:36.526Z,6.80
2022-08-18T02:07:08.509Z,7.72
2022-08-18T02:09:37.336Z,5.15
2022-08-18T02:12:05.989Z,6.50
2022-08-18T02:14:34.398Z,6.60
2022-08-18T02:17:04.439Z,7.35
2022-08-18T02:19:38.292Z,12.75
2022-08-18T02:22:06.705Z,5.65
2022-08-18T02:24:33.536Z,7.38
2022-08-18T02:27:00.676Z,5.18
2022-08-18T02:29:27.624Z,7.07
2022-08-18T02:31:54.561Z,8.38
2022-08-18T02:34:21.372Z,5.43
2022-08-18T02:36:48.249Z,10.98
2022-08-18T02:39:15.272Z,5.78
2022-08-18T02:41:42.147Z,7.70
2022-08-18T02:44:10.199Z,6.63
2022-08-18T02:46:37.901Z,7.85
2022-08-18T02:49:06.219Z,9.18
2022-08-18T02:51:33.129Z,5.20
2022-08-18T02:54:00.336Z,4.53
2022-08-18T02:56:41.598Z,5.75
2022-08-18T02:59:15.692Z,7.10
2022-08-18T03:01:45.288Z,5.80
2022-08-18T03:04:15.528Z,7.00
2022-08-18T03:06:44.312Z,4.35
2022-08-18T03:09:14.104Z,5.82
2022-08-18T03:11:41.091Z,4.35
2022-08-18T03:14:11.712Z,13.10
2022-08-18T03:16:52.786Z,6.75
2022-08-18T03:19:23.231Z,11.98
2022-08-18T03:21:50.601Z,7.15
2022-08-18T03:24:23.006Z,3.58
2022-08-18T03:26:52.197Z,6.35
2022-08-18T03:29:20.230Z,5.43
2022-08-18T03:31:48.946Z,3.40
2022-08-18T03:34:19.695Z,5.85
2022-08-18T03:36:48.172Z,5.10
2022-08-18T03:39:15.085Z,4.30
2022-08-18T03:41:58.571Z,4.40
2022-08-18T03:44:30.542Z,8.82
2022-08-18T03:46:58.150Z,4.93
2022-08-18T03:49:27.285Z,4.20
2022-08-18T03:51:54.571Z,5.00
2022-08-18T03:54:21.602Z,3.90
2022-08-18T03:56:49.487Z,8.85
2022-08-18T03:59:23.123Z,3.80
2022-08-18T04:01:53.939Z,4.77
2022-08-18T04:04:24.628Z,3.45
2022-08-18T04:06:54.701Z,3.58
2022-08-18T04:09:24.684Z,6.25
2022-08-18T04:11:52.039Z,3.95
2022-08-18T04:14:28.865Z,4.63
2022-08-18T04:16:57.004Z,8.82
2022-08-18T04:19:27.045Z,4.18
2022-08-18T04:21:56.758Z,4.85
2022-08-18T04:24:24.110Z,6.03
2022-08-18T04:26:52.106Z,7.50
2022-08-18T04:29:21.310Z,4.80
2022-08-18T04:31:50.360Z,6.72
2022-08-18T04:34:18.531Z,6.88
2022-08-18T04:36:45.355Z,5.53
2022-08-18T04:39:13.548Z,5.22
2022-08-18T04:41:43.440Z,4.10
2022-08-18T04:44:12.607Z,7.95
2022-08-18T04:46:47.856Z,7.20
2022-08-18T04:49:16.747Z,6.00
2022-08-18T04:52:36.296Z,6.22
2022-08-18T04:54:55.754Z,5.75
2022-08-18T04:57:23.214Z,6.88
2022-08-18T04:59:52.160Z,6.47
2022-08-18T05:02:21.121Z,7.35
2022-08-18T05:04:48.387Z,7.00
2022-08-18T05:07:18.979Z,6.78
2022-08-18T05:09:45.953Z,8.93
2022-08-18T05:12:14.573Z,7.03
2022-08-18T05:14:44.579Z,6.00
2022-08-18T05:17:13.252Z,6.45
2022-08-18T05:19:42.187Z,4.10
2022-08-18T05:22:10.914Z,5.63
2022-08-18T05:24:39.711Z,4.63
2022-08-18T05:27:07.700Z,7.50
2022-08-18T05:29:41.745Z,8.13
2022-08-18T05:32:37.248Z,8.65
2022-08-18T05:35:10.395Z,4.20
2022-08-18T05:38:01.498Z,6.32
2022-08-18T05:40:29.488Z,5.32
2022-08-18T05:42:58.820Z,5.35
2022-08-18T05:45:27.135Z,3.45
2022-08-18T05:48:00.075Z,5.90
2022-08-18T05:50:29.427Z,7.03
2022-08-18T05:53:16.926Z,6.00
2022-08-18T05:56:10.439Z,4.78
2022-08-18T05:58:42.520Z,7.75
2022-08-18T06:01:29.660Z,3.53
2022-08-18T06:04:14.801Z,4.65
2022-08-18T06:06:47.485Z,7.03
2022-08-18T06:09:22.358Z,4.20
2022-08-18T06:14:16.914Z,5.07
2022-08-18T06:16:56.527Z,6.30
2022-08-18T06:19:38.546Z,5.13
2022-08-18T06:22:52.656Z,6.05
2022-08-18T06:25:46.241Z,4.13
2022-08-18T06:28:15.905Z,3.95
2022-08-18T06:30:42.755Z,5.35
2022-08-18T06:33:29.837Z,6.07
2022-08-18T06:36:03.207Z,4.18
2022-08-18T06:38:57.370Z,4.15
2022-08-18T06:41:46.189Z,5.00
2022-08-18T06:44:23.154Z,5.32
2022-08-18T06:47:11.940Z,6.05
2022-08-18T06:50:08.343Z,2.90
2022-08-18T06:52:39.048Z,4.85
2022-08-18T06:55:15.993Z,3.22
2022-08-18T06:57:58.073Z,2.65
2022-08-18T07:00:31.408Z,3.38
2022-08-18T07:03:15.055Z,3.05
2022-08-18T07:06:02.536Z,5.82
2022-08-18T07:08:41.708Z,3.03
2022-08-18T07:11:11.461Z,1.88
2022-08-18T07:13:41.910Z,3.30
2022-08-18T07:16:26.463Z,2.55
2022-08-18T07:19:22.738Z,2.97
2022-08-18T07:22:12.281Z,2.90
2022-08-18T07:24:49.266Z,3.25
2022-08-18T07:27:20.009Z,2.92
2022-08-18T07:30:09.064Z,3.03
2022-08-18T07:32:45.029Z,3.10
2022-08-18T07:35:17.510Z,2.30
2022-08-18T07:37:47.111Z,3.00
2022-08-18T07:40:36.761Z,2.05
2022-08-18T07:43:19.818Z,2.70
2022-08-18T07:45:47.557Z,3.25
2022-08-18T07:48:38.503Z,1.90
2022-08-18T07:51:24.494Z,1.90
2022-08-18T07:54:00.177Z,2.55
2022-08-18T07:57:02.946Z,3.35
2022-08-18T07:59:58.418Z,1.92
2022-08-18T08:03:01.088Z,5.78
2022-08-18T08:05:39.541Z,1.48
2022-08-18T08:08:30.233Z,3.38
2022-08-18T08:11:03.117Z,4.53
2022-08-18T08:13:55.293Z,1.48
2022-08-18T08:16:28.536Z,2.13
2022-08-18T08:18:55.362Z,1.52
2022-08-18T08:21:28.624Z,1.35
2022-08-18T08:24:13.160Z,1.95
2022-08-18T08:27:02.252Z,1.20
2022-08-18T08:29:34.858Z,1.48
2022-08-18T08:32:14.602Z,2.78
2022-08-18T08:34:57.260Z,1.20
2022-08-18T08:37:53.202Z,2.03
2022-08-18T08:40:27.948Z,2.55
2022-08-18T08:43:00.703Z,1.98
2022-08-18T08:45:33.949Z,1.10
2022-08-18T08:48:28.233Z,1.67
2022-08-18T08:50:57.710Z,1.42
2022-08-18T08:53:33.552Z,1.20
2022-08-18T08:56:16.192Z,1.33
2022-08-18T08:58:45.772Z,0.95
2022-08-18T09:01:27.747Z,2.10
2022-08-18T09:04:24.703Z,3.53
2022-08-18T09:07:26.653Z,1.92
2022-08-18T09:10:06.371Z,2.83
2022-08-18T09:13:01.961Z,1.48
2022-08-18T09:16:12.288Z,3.58
2022-08-18T09:18:46.460Z,1.88
2022-08-18T09:21:35.230Z,1.30
2022-08-18T09:24:31.725Z,1.30
2022-08-18T09:27:23.235Z,0.68
2022-08-18T09:29:57.332Z,3.72
2022-08-18T09:32:36.912Z,0.63
2022-08-18T09:35:33.043Z,3.45
2022-08-18T09:38:28.659Z,1.50
2022-08-18T09:41:31.402Z,3.50
2022-08-18T09:44:17.699Z,1.65
2022-08-18T09:46:47.811Z,1.92
2022-08-18T09:49:27.022Z,3.88
2022-08-18T09:52:24.227Z,1.13
2022-08-18T09:55:18.016Z,1.23
2022-08-18T09:57:46.699Z,0.75
2022-08-18T10:00:28.254Z,2.00
2022-08-18T10:02:55.665Z,1.90
2022-08-18T10:05:29.469Z,2.38
2022-08-18T10:08:01.567Z,2.50
2022-08-18T10:11:01.085Z,3.40
2022-08-18T10:14:18.920Z,3.42
2022-08-18T10:23:04.492Z,1.75
2022-08-18T10:25:41.908Z,3.13
2022-08-18T10:28:50.158Z,3.13
2022-08-18T10:31:18.967Z,2.28
2022-08-18T10:37:00.590Z,2.25
2022-08-18T10:39:41.737Z,2.72
2022-08-18T10:42:31.428Z,1.95
2022-08-18T10:45:26.972Z,2.20
2022-08-18T10:48:24.443Z,2.78
2022-08-18T10:50:56.310Z,5.75
2022-08-18T10:53:44.344Z,2.38
2022-08-18T10:56:26.694Z,3.38
2022-08-18T10:59:29.219Z,1.67
2022-08-18T11:02:04.019Z,2.90
2022-08-18T11:04:59.170Z,3.70
2022-08-18T11:07:30.875Z,1.70
2022-08-18T11:13:10.544Z,2.25
2022-08-18T11:15:46.937Z,2.17
2022-08-18T11:18:49.712Z,2.47
2022-08-18T11:21:24.959Z,1.52
2022-08-18T11:24:10.136Z,2.10
2022-08-18T11:26:42.411Z,1.42
2022-08-18T11:29:18.024Z,1.48
2022-08-18T11:31:52.832Z,6.38
2022-08-18T11:34:56.488Z,2.33
2022-08-18T11:37:48.855Z,1.20
2022-08-18T11:40:51.670Z,2.20
2022-08-18T11:43:15.288Z,1.33
2022-08-18T11:45:48.085Z,1.33
2022-08-18T11:48:14.979Z,1.52
2022-08-18T11:51:01.549Z,0.77
2022-08-18T11:53:47.150Z,1.10
2022-08-18T11:56:20.697Z,1.83
2022-08-18T11:59:06.954Z,1.40
2022-08-18T12:01:42.810Z,1.52
2022-08-18T12:04:16.567Z,0.55
2022-08-18T12:06:56.759Z,1.38
2022-08-18T12:10:07.901Z,0.60
2022-08-18T12:12:31.690Z,2.85
2022-08-18T12:15:13.702Z,0.30
2022-08-18T12:20:32.825Z,1.02
2022-08-18T12:22:59.651Z,1.13
2022-08-18T12:25:26.466Z,2.17
2022-08-18T12:27:56.357Z,0.57
2022-08-18T12:30:23.455Z,0.50
2022-08-18T12:32:55.749Z,0.95
2022-08-18T12:35:23.459Z,1.40
2022-08-18T12:40:40.021Z,0.88
2022-08-18T12:43:07.237Z,0.95
2022-08-18T12:45:34.713Z,0.70
2022-08-18T12:48:05.184Z,0.60
2022-08-18T12:50:41.076Z,1.48
2022-08-18T12:53:17.220Z,1.27
2022-08-18T12:55:45.913Z,2.35
2022-08-18T12:58:12.872Z,1.83
2022-08-18T13:00:41.004Z,0.77
2022-08-18T13:03:08.725Z,1.15
2022-08-18T13:05:37.462Z,1.25
2022-08-18T13:08:09.718Z,0.52
2022-08-18T13:10:45.124Z,2.53
2022-08-18T13:13:17.134Z,0.63
2022-08-18T13:15:57.940Z,0.63
2022-08-18T13:18:28.708Z,0.95
2022-08-18T13:20:57.565Z,0.60
2022-08-18T13:23:27.497Z,1.05
2022-08-18T13:25:59.302Z,0.57
2022-08-18T13:28:36.148Z,0.35
2022-08-18T13:31:20.594Z,3.15
2022-08-18T13:33:56.392Z,1.27
2022-08-18T13:36:26.289Z,0.60
2022-08-18T13:38:56.037Z,3.47
2022-08-18T13:43:51.658Z,0.60
2022-08-18T13:46:24.241Z,1.65
2022-08-18T13:49:03.064Z,0.60
2022-08-18T13:51:30.459Z,0.70
2022-08-18T13:54:17.896Z,1.17
2022-08-18T13:56:51.866Z,0.70
2022-08-18T13:59:21.622Z,1.25
2022-08-18T14:01:53.047Z,1.10
2022-08-18T14:04:22.839Z,0.70
2022-08-18T14:06:57.349Z,0.60
2022-08-18T14:09:36.034Z,0.47
2022-08-18T14:12:35.752Z,0.55
2022-08-18T14:15:10.953Z,1.02
2022-08-18T14:17:39.149Z,2.45
2022-08-18T14:20:27.343Z,0.50
2022-08-18T14:23:23.865Z,1.33
2022-08-18T14:26:13.223Z,0.50
2022-08-18T14:28:41.314Z,0.63
2022-08-18T14:31:08.814Z,1.60
2022-08-18T14:33:51.555Z,1.45
2022-08-18T14:36:19.617Z,1.50
2022-08-18T14:38:46.546Z,1.60
2022-08-18T14:41:19.039Z,0.63
2022-08-18T14:44:10.889Z,1.15
2022-08-18T14:46:34.702Z,1.70
2022-08-18T14:49:03.914Z,2.25
2022-08-18T14:51:33.405Z,0.90
2022-08-18T14:54:01.591Z,0.82
2022-08-18T14:56:29.471Z,1.88
2022-08-18T14:58:56.922Z,1.27
2022-08-18T15:01:26.584Z,0.68
2022-08-18T15:03:54.497Z,1.00
2022-08-18T15:06:23.162Z,0.50
2022-08-18T15:08:55.041Z,1.17
2022-08-18T15:11:24.942Z,1.17
2022-08-18T15:13:55.429Z,0.85
2022-08-18T15:16:31.599Z,1.13
2022-08-18T15:18:59.316Z,1.15
2022-08-18T15:21:46.947Z,0.93
2022-08-18T15:24:37.583Z,0.50
2022-08-18T15:27:10.309Z,1.27
2022-08-18T15:29:41.507Z,0.50
2022-08-18T15:32:16.873Z,1.08
2022-08-18T15:34:46.910Z,0.60
2022-08-18T15:37:19.440Z,0.80
2022-08-18T15:39:55.951Z,0.85
2022-08-18T15:42:23.745Z,2.38
2022-08-18T15:44:53.722Z,1.05
2022-08-18T15:47:21.930Z,1.00
2022-08-18T15:49:52.521Z,2.63
2022-08-18T15:52:21.804Z,0.70
2022-08-18T15:54:51.071Z,1.42
2022-08-18T15:57:35.337Z,1.38
2022-08-18T16:00:06.833Z,2.67
2022-08-18T16:02:40.138Z,0.40
2022-08-18T16:05:09.074Z,0.68
2022-08-18T16:07:40.956Z,2.05
2022-08-18T16:10:13.571Z,1.50
2022-08-18T16:12:40.987Z,1.05
2022-08-18T16:15:19.229Z,1.05
2022-08-18T16:17:48.832Z,1.30
2022-08-18T16:20:15.830Z,0.80
2022-08-18T16:22:43.408Z,3.15
2022-08-18T16:25:10.485Z,0.50
2022-08-18T16:27:41.997Z,0.82
2022-08-18T16:30:21.448Z,1.27
2022-08-18T16:32:48.693Z,1.13
2022-08-18T16:35:18.668Z,3.35
2022-08-18T16:37:46.864Z,4.32
2022-08-18T16:40:19.122Z,0.82
2022-08-18T16:42:46.906Z,0.70
2022-08-18T16:45:16.049Z,1.75
2022-08-18T16:47:42.946Z,1.75
2022-08-18T16:50:12.597Z,1.65
2022-08-18T16:52:40.436Z,1.50
2022-08-18T16:55:10.290Z,0.73
2022-08-18T16:58:00.985Z,0.60
2022-08-18T17:00:48.527Z,2.42
2022-08-18T17:03:44.192Z,0.77
2022-08-18T17:06:14.282Z,1.10
2022-08-18T17:08:42.795Z,1.17
2022-08-18T17:11:13.809Z,0.68
2022-08-18T17:13:42.071Z,1.30
2022-08-18T17:16:10.840Z,3.63
2022-08-18T17:18:38.447Z,1.83
2022-08-18T17:21:07.518Z,1.33
2022-08-18T17:23:37.430Z,0.60
2022-08-18T17:26:09.234Z,2.08
2022-08-18T17:28:50.574Z,1.08
2022-08-18T17:31:24.370Z,1.10
2022-08-18T17:33:55.407Z,1.55
2022-08-18T17:36:39.250Z,3.60
2022-08-18T17:39:12.305Z,1.92
2022-08-18T17:42:01.708Z,1.00
2022-08-18T17:44:31.631Z,1.33
2022-08-18T17:47:00.480Z,1.48
2022-08-18T17:50:04.182Z,1.60
2022-08-18T17:52:45.802Z,0.65
2022-08-18T17:55:28.769Z,0.80
2022-08-18T17:58:18.739Z,1.17
2022-08-18T18:00:45.587Z,1.08
2022-08-18T18:03:13.482Z,1.80
2022-08-18T18:05:47.267Z,1.23
2022-08-18T18:08:14.167Z,1.55
2022-08-18T18:13:34.302Z,0.65
2022-08-18T18:16:19.674Z,1.60
2022-08-18T18:18:47.076Z,1.48
2022-08-18T18:21:16.942Z,1.40
2022-08-18T18:23:59.475Z,2.92
2022-08-18T18:26:30.014Z,0.90
2022-08-18T18:29:19.874Z,1.85
2022-08-18T18:32:02.645Z,1.60
2022-08-18T18:34:34.754Z,2.08
2022-08-18T18:37:02.492Z,2.85
2022-08-18T18:39:37.928Z,2.05
2022-08-18T18:42:15.742Z,1.42
2022-08-18T18:45:00.021Z,1.50
2022-08-18T18:47:55.883Z,1.55
2022-08-18T18:50:55.812Z,1.63
2022-08-18T18:53:43.390Z,1.17
2022-08-18T18:56:27.509Z,1.33
2022-08-18T18:59:18.427Z,1.73
2022-08-18T19:02:05.709Z,1.40
2022-08-18T19:05:08.808Z,1.65
2022-08-18T19:08:00.323Z,1.77
2022-08-18T19:10:39.852Z,1.33
2022-08-18T19:13:37.592Z,1.52
2022-08-18T19:16:23.710Z,1.50
2022-08-18T19:18:57.911Z,2.60
2022-08-18T19:22:04.270Z,2.78
2022-08-18T19:24:38.647Z,1.80
2022-08-18T19:27:10.755Z,1.30
2022-08-18T19:29:43.013Z,1.20
2022-08-18T19:32:24.809Z,1.70
2022-08-18T19:34:55.714Z,2.03
2022-08-18T19:37:36.261Z,1.77
2022-08-18T19:40:18.683Z,1.85
2022-08-18T19:43:12.415Z,4.70
2022-08-18T19:46:10.663Z,1.88
2022-08-18T19:49:09.867Z,1.30
2022-08-18T19:51:40.829Z,1.67
2022-08-18T19:54:22.806Z,1.63
2022-08-18T19:56:57.961Z,1.30
2022-08-18T21:17:19.992Z,3.08
2022-08-18T21:19:47.168Z,2.42
2022-08-18T21:22:14.213Z,1.88
2022-08-18T21:24:44.373Z,1.63
2022-08-18T21:27:20.271Z,1.63
2022-08-18T21:29:49.805Z,1.20
2022-08-18T21:32:31.689Z,1.42
2022-08-18T21:35:08.006Z,1.30
2022-08-18T21:37:41.528Z,1.25
2022-08-18T21:40:08.988Z,2.85
2022-08-18T21:42:40.483Z,2.60
2022-08-18T21:45:17.691Z,1.58
2022-08-18T21:47:49.810Z,4.50
2022-08-18T21:50:34.951Z,2.67
2022-08-18T21:53:16.225Z,2.13
2022-08-18T21:55:51.346Z,4.90
2022-08-18T21:58:32.912Z,2.30
2022-08-18T22:01:10.207Z,2.08
2022-08-18T22:03:48.672Z,1.52
2022-08-18T22:06:38.396Z,1.20
2022-08-18T22:09:29.923Z,1.58
2022-08-18T22:12:54.140Z,1.60
2022-08-18T22:15:39.894Z,1.33
2022-08-18T22:18:28.928Z,1.63
2022-08-18T22:21:00.259Z,4.55
2022-08-18T22:24:15.591Z,3.20
2022-08-18T22:26:42.615Z,1.23
2022-08-18T22:29:27.892Z,1.77
2022-08-18T22:31:55.204Z,2.25
2022-08-18T22:34:29.186Z,2.28
2022-08-18T22:37:07.767Z,3.50
2022-08-18T22:39:38.031Z,2.63
2022-08-18T22:42:06.164Z,2.38
2022-08-18T22:44:33.001Z,3.85
2022-08-18T22:47:00.153Z,1.92
2022-08-18T22:49:27.098Z,3.33
2022-08-18T22:51:55.005Z,3.85
2022-08-18T22:54:24.017Z,2.53
2022-08-18T22:56:56.780Z,2.85
2022-08-18T22:59:26.948Z,3.03
2022-08-18T23:01:54.909Z,2.92
2022-08-18T23:04:23.101Z,1.98
2022-08-18T23:06:53.704Z,2.63
2022-08-18T23:09:26.945Z,2.53
2022-08-18T23:11:55.777Z,4.18
2022-08-18T23:14:23.248Z,2.78
2022-08-18T23:16:51.124Z,3.22
2022-08-18T23:19:20.065Z,3.63
2022-08-18T23:21:48.588Z,3.30
2022-08-18T23:24:17.171Z,2.58
2022-08-18T23:26:44.152Z,2.65
2022-08-18T23:29:11.623Z,2.60
2022-08-18T23:31:41.379Z,2.38
2022-08-18T23:34:08.831Z,2.65
2022-08-18T23:36:41.270Z,1.92
2022-08-18T23:39:10.828Z,2.58
2022-08-18T23:41:38.415Z,2.80
2022-08-18T23:44:06.649Z,2.80
2022-08-18T23:46:34.767Z,2.03
2022-08-18T23:49:03.976Z,3.05
2022-08-18T23:51:34.877Z,2.97
2022-08-18T23:54:05.135Z,3.30
2022-08-18T23:56:33.649Z,2.25
2022-08-18T23:59:01.235Z,3.35
